sensor_id;sensor_type;location;lat;lon;timestamp;P1;durP1;ratioP1;P2;durP2;ratioP2
20044;SDS011;10183;47.808;9.476;2024-03-22T00:00:41;35.30;;;30.37;;
20044;SDS011;10183;47.808;9.476;2024-03-22T00:03:07;33.23;;;28.87;;
20044;SDS011;10183;47.808;9.476;2024-03-22T00:05:33;31.17;;;28.17;;
20044;SDS011;10183;47.808;9.476;2024-03-22T00:07:58;32.10;;;28.80;;
20044;SDS011;10183;47.808;9.476;2024-03-22T00:10:24;31.60;;;28.43;;
20044;SDS011;10183;47.808;9.476;2024-03-22T00:12:50;32.33;;;29.03;;
20044;SDS011;10183;47.808;9.476;2024-03-22T00:15:15;31.90;;;28.50;;
20044;SDS011;10183;47.808;9.476;2024-03-22T00:17:42;32.13;;;28.93;;
20044;SDS011;10183;47.808;9.476;2024-03-22T00:20:09;30.97;;;28.03;;
20044;SDS011;10183;47.808;9.476;2024-03-22T00:22:35;33.07;;;29.47;;
20044;SDS011;10183;47.808;9.476;2024-03-22T00:25:01;33.60;;;30.20;;
20044;SDS011;10183;47.808;9.476;2024-03-22T00:27:26;34.57;;;29.47;;
20044;SDS011;10183;47.808;9.476;2024-03-22T00:29:52;31.47;;;28.07;;
20044;SDS011;10183;47.808;9.476;2024-03-22T00:32:18;32.57;;;29.13;;
20044;SDS011;10183;47.808;9.476;2024-03-22T00:34:44;32.40;;;29.00;;
20044;SDS011;10183;47.808;9.476;2024-03-22T00:37:10;32.57;;;29.13;;
20044;SDS011;10183;47.808;9.476;2024-03-22T00:39:36;33.70;;;30.13;;
20044;SDS011;10183;47.808;9.476;2024-03-22T00:42:01;33.97;;;30.47;;
20044;SDS011;10183;47.808;9.476;2024-03-22T00:44:27;33.73;;;29.40;;
20044;SDS011;10183;47.808;9.476;2024-03-22T00:46:53;35.70;;;30.30;;
20044;SDS011;10183;47.808;9.476;2024-03-22T00:49:18;33.97;;;29.60;;
20044;SDS011;10183;47.808;9.476;2024-03-22T00:51:44;32.87;;;28.90;;
20044;SDS011;10183;47.808;9.476;2024-03-22T00:54:10;32.93;;;29.33;;
20044;SDS011;10183;47.808;9.476;2024-03-22T00:56:35;34.87;;;30.33;;
20044;SDS011;10183;47.808;9.476;2024-03-22T00:59:01;32.97;;;29.63;;
20044;SDS011;10183;47.808;9.476;2024-03-22T01:01:27;35.60;;;29.73;;
20044;SDS011;10183;47.808;9.476;2024-03-22T01:03:52;32.77;;;28.90;;
20044;SDS011;10183;47.808;9.476;2024-03-22T01:06:18;32.87;;;29.43;;
20044;SDS011;10183;47.808;9.476;2024-03-22T01:08:48;32.33;;;29.03;;
20044;SDS011;10183;47.808;9.476;2024-03-22T01:11:14;33.13;;;29.70;;
20044;SDS011;10183;47.808;9.476;2024-03-22T01:13:40;32.70;;;29.20;;
20044;SDS011;10183;47.808;9.476;2024-03-22T01:16:06;33.70;;;30.33;;
20044;SDS011;10183;47.808;9.476;2024-03-22T01:18:34;33.90;;;30.37;;
20044;SDS011;10183;47.808;9.476;2024-03-22T01:21:00;34.93;;;31.40;;
20044;SDS011;10183;47.808;9.476;2024-03-22T01:23:26;34.53;;;31.03;;
20044;SDS011;10183;47.808;9.476;2024-03-22T01:25:52;34.47;;;30.60;;
20044;SDS011;10183;47.808;9.476;2024-03-22T01:28:17;37.90;;;30.70;;
20044;SDS011;10183;47.808;9.476;2024-03-22T01:30:43;33.57;;;30.07;;
20044;SDS011;10183;47.808;9.476;2024-03-22T01:33:09;34.30;;;30.70;;
20044;SDS011;10183;47.808;9.476;2024-03-22T01:35:34;34.33;;;30.57;;
20044;SDS011;10183;47.808;9.476;2024-03-22T01:38:00;35.47;;;31.67;;
20044;SDS011;10183;47.808;9.476;2024-03-22T01:40:25;34.30;;;30.80;;
20044;SDS011;10183;47.808;9.476;2024-03-22T01:43:00;37.90;;;30.07;;
20044;SDS011;10183;47.808;9.476;2024-03-22T01:45:27;35.00;;;31.00;;
20044;SDS011;10183;47.808;9.476;2024-03-22T01:47:57;35.70;;;31.90;;
20044;SDS011;10183;47.808;9.476;2024-03-22T01:50:24;37.13;;;32.10;;
20044;SDS011;10183;47.808;9.476;2024-03-22T01:52:51;36.43;;;31.10;;
20044;SDS011;10183;47.808;9.476;2024-03-22T01:55:17;35.50;;;31.63;;
20044;SDS011;10183;47.808;9.476;2024-03-22T01:57:43;38.13;;;32.57;;
20044;SDS011;10183;47.808;9.476;2024-03-22T02:00:09;35.73;;;31.93;;
20044;SDS011;10183;47.808;9.476;2024-03-22T02:02:35;34.77;;;30.97;;
20044;SDS011;10183;47.808;9.476;2024-03-22T02:05:19;33.93;;;30.33;;
20044;SDS011;10183;47.808;9.476;2024-03-22T02:07:45;39.97;;;32.13;;
20044;SDS011;10183;47.808;9.476;2024-03-22T02:10:11;37.10;;;33.10;;
20044;SDS011;10183;47.808;9.476;2024-03-22T02:12:38;35.70;;;31.67;;
20044;SDS011;10183;47.808;9.476;2024-03-22T02:15:04;37.43;;;31.77;;
20044;SDS011;10183;47.808;9.476;2024-03-22T02:17:31;37.63;;;32.77;;
20044;SDS011;10183;47.808;9.476;2024-03-22T02:19:57;35.30;;;31.70;;
20044;SDS011;10183;47.808;9.476;2024-03-22T02:22:23;38.93;;;32.73;;
20044;SDS011;10183;47.808;9.476;2024-03-22T02:24:49;38.93;;;33.07;;
20044;SDS011;10183;47.808;9.476;2024-03-22T02:27:15;36.23;;;30.73;;
20044;SDS011;10183;47.808;9.476;2024-03-22T02:29:40;42.53;;;32.17;;
20044;SDS011;10183;47.808;9.476;2024-03-22T02:32:06;33.63;;;30.17;;
20044;SDS011;10183;47.808;9.476;2024-03-22T02:34:32;33.97;;;30.37;;
20044;SDS011;10183;47.808;9.476;2024-03-22T02:36:57;34.83;;;31.13;;
20044;SDS011;10183;47.808;9.476;2024-03-22T02:39:23;37.73;;;33.63;;
20044;SDS011;10183;47.808;9.476;2024-03-22T02:41:50;38.90;;;34.73;;
20044;SDS011;10183;47.808;9.476;2024-03-22T02:44:16;40.17;;;36.27;;
20044;SDS011;10183;47.808;9.476;2024-03-22T02:46:41;38.83;;;34.90;;
20044;SDS011;10183;47.808;9.476;2024-03-22T02:49:07;40.00;;;35.07;;
20044;SDS011;10183;47.808;9.476;2024-03-22T02:51:32;36.30;;;32.50;;
20044;SDS011;10183;47.808;9.476;2024-03-22T02:53:58;36.60;;;31.83;;
20044;SDS011;10183;47.808;9.476;2024-03-22T02:56:24;37.03;;;33.23;;
20044;SDS011;10183;47.808;9.476;2024-03-22T02:58:49;37.00;;;33.10;;
20044;SDS011;10183;47.808;9.476;2024-03-22T03:01:15;35.80;;;32.40;;
20044;SDS011;10183;47.808;9.476;2024-03-22T03:03:41;37.60;;;33.50;;
20044;SDS011;10183;47.808;9.476;2024-03-22T03:06:06;40.57;;;33.73;;
20044;SDS011;10183;47.808;9.476;2024-03-22T03:08:33;36.53;;;32.53;;
20044;SDS011;10183;47.808;9.476;2024-03-22T03:10:59;36.93;;;33.03;;
20044;SDS011;10183;47.808;9.476;2024-03-22T03:13:24;36.30;;;32.60;;
20044;SDS011;10183;47.808;9.476;2024-03-22T03:15:51;36.57;;;32.57;;
20044;SDS011;10183;47.808;9.476;2024-03-22T03:18:16;37.17;;;33.23;;
20044;SDS011;10183;47.808;9.476;2024-03-22T03:20:43;35.77;;;31.93;;
20044;SDS011;10183;47.808;9.476;2024-03-22T03:23:08;35.23;;;31.53;;
20044;SDS011;10183;47.808;9.476;2024-03-22T03:25:34;33.97;;;30.37;;
20044;SDS011;10183;47.808;9.476;2024-03-22T03:27:59;33.60;;;30.00;;
20044;SDS011;10183;47.808;9.476;2024-03-22T03:30:25;35.33;;;31.53;;
20044;SDS011;10183;47.808;9.476;2024-03-22T03:32:51;35.53;;;31.73;;
20044;SDS011;10183;47.808;9.476;2024-03-22T03:35:16;34.57;;;30.57;;
20044;SDS011;10183;47.808;9.476;2024-03-22T03:37:42;36.53;;;32.83;;
20044;SDS011;10183;47.808;9.476;2024-03-22T03:40:08;37.13;;;33.10;;
20044;SDS011;10183;47.808;9.476;2024-03-22T03:42:33;34.47;;;30.87;;
20044;SDS011;10183;47.808;9.476;2024-03-22T03:44:59;37.23;;;32.80;;
20044;SDS011;10183;47.808;9.476;2024-03-22T03:47:25;36.60;;;32.17;;
20044;SDS011;10183;47.808;9.476;2024-03-22T03:49:50;39.17;;;33.33;;
20044;SDS011;10183;47.808;9.476;2024-03-22T03:52:17;38.87;;;34.03;;
20044;SDS011;10183;47.808;9.476;2024-03-22T03:54:43;40.03;;;33.97;;
20044;SDS011;10183;47.808;9.476;2024-03-22T03:57:08;41.30;;;35.10;;
20044;SDS011;10183;47.808;9.476;2024-03-22T03:59:34;38.43;;;32.63;;
20044;SDS011;10183;47.808;9.476;2024-03-22T04:02:00;39.17;;;33.70;;
20044;SDS011;10183;47.808;9.476;2024-03-22T04:04:26;39.37;;;33.80;;
20044;SDS011;10183;47.808;9.476;2024-03-22T04:06:51;38.33;;;34.23;;
20044;SDS011;10183;47.808;9.476;2024-03-22T04:09:17;36.47;;;31.57;;
20044;SDS011;10183;47.808;9.476;2024-03-22T04:11:43;36.70;;;32.57;;
20044;SDS011;10183;47.808;9.476;2024-03-22T04:14:09;39.07;;;34.90;;
20044;SDS011;10183;47.808;9.476;2024-03-22T04:16:34;37.33;;;33.40;;
20044;SDS011;10183;47.808;9.476;2024-03-22T04:19:00;43.37;;;37.80;;
20044;SDS011;10183;47.808;9.476;2024-03-22T04:21:26;42.60;;;35.70;;
20044;SDS011;10183;47.808;9.476;2024-03-22T04:23:52;43.00;;;36.17;;
20044;SDS011;10183;47.808;9.476;2024-03-22T04:26:17;37.70;;;33.60;;
20044;SDS011;10183;47.808;9.476;2024-03-22T04:28:43;36.23;;;31.57;;
20044;SDS011;10183;47.808;9.476;2024-03-22T04:31:09;38.60;;;31.80;;
20044;SDS011;10183;47.808;9.476;2024-03-22T04:33:35;39.73;;;31.23;;
20044;SDS011;10183;47.808;9.476;2024-03-22T04:36:02;37.43;;;31.00;;
20044;SDS011;10183;47.808;9.476;2024-03-22T04:38:28;41.23;;;34.30;;
20044;SDS011;10183;47.808;9.476;2024-03-22T04:40:54;39.20;;;34.07;;
20044;SDS011;10183;47.808;9.476;2024-03-22T04:43:21;36.50;;;32.63;;
20044;SDS011;10183;47.808;9.476;2024-03-22T04:45:50;35.43;;;31.70;;
20044;SDS011;10183;47.808;9.476;2024-03-22T04:48:25;40.27;;;30.83;;
20044;SDS011;10183;47.808;9.476;2024-03-22T04:50:51;38.50;;;31.67;;
20044;SDS011;10183;47.808;9.476;2024-03-22T04:53:20;35.80;;;31.87;;
20044;SDS011;10183;47.808;9.476;2024-03-22T04:55:46;35.50;;;31.73;;
20044;SDS011;10183;47.808;9.476;2024-03-22T04:58:17;36.23;;;32.50;;
20044;SDS011;10183;47.808;9.476;2024-03-22T05:00:44;49.47;;;38.10;;
20044;SDS011;10183;47.808;9.476;2024-03-22T05:03:10;47.90;;;34.63;;
20044;SDS011;10183;47.808;9.476;2024-03-22T05:05:36;41.20;;;33.87;;
20044;SDS011;10183;47.808;9.476;2024-03-22T05:08:02;43.57;;;33.60;;
20044;SDS011;10183;47.808;9.476;2024-03-22T05:10:29;35.27;;;31.50;;
20044;SDS011;10183;47.808;9.476;2024-03-22T05:12:55;34.37;;;30.63;;
20044;SDS011;10183;47.808;9.476;2024-03-22T05:15:21;55.83;;;42.17;;
20044;SDS011;10183;47.808;9.476;2024-03-22T05:17:48;58.70;;;45.17;;
20044;SDS011;10183;47.808;9.476;2024-03-22T05:20:14;52.30;;;39.90;;
20044;SDS011;10183;47.808;9.476;2024-03-22T05:22:41;47.30;;;34.83;;
20044;SDS011;10183;47.808;9.476;2024-03-22T05:25:07;43.03;;;32.97;;
20044;SDS011;10183;47.808;9.476;2024-03-22T05:27:33;44.23;;;30.93;;
20044;SDS011;10183;47.808;9.476;2024-03-22T05:29:59;40.53;;;31.47;;
20044;SDS011;10183;47.808;9.476;2024-03-22T05:32:25;42.57;;;32.30;;
20044;SDS011;10183;47.808;9.476;2024-03-22T05:34:51;42.47;;;33.47;;
20044;SDS011;10183;47.808;9.476;2024-03-22T05:37:17;36.60;;;32.23;;
20044;SDS011;10183;47.808;9.476;2024-03-22T05:39:43;35.53;;;30.87;;
20044;SDS011;10183;47.808;9.476;2024-03-22T05:42:09;40.83;;;34.33;;
20044;SDS011;10183;47.808;9.476;2024-03-22T05:44:34;39.17;;;33.80;;
20044;SDS011;10183;47.808;9.476;2024-03-22T05:47:00;38.30;;;33.90;;
20044;SDS011;10183;47.808;9.476;2024-03-22T05:49:26;39.67;;;35.57;;
20044;SDS011;10183;47.808;9.476;2024-03-22T05:51:51;39.13;;;34.93;;
20044;SDS011;10183;47.808;9.476;2024-03-22T05:54:17;37.73;;;33.30;;
20044;SDS011;10183;47.808;9.476;2024-03-22T05:56:43;39.80;;;32.93;;
20044;SDS011;10183;47.808;9.476;2024-03-22T05:59:09;40.10;;;34.27;;
20044;SDS011;10183;47.808;9.476;2024-03-22T06:01:35;39.87;;;32.87;;
20044;SDS011;10183;47.808;9.476;2024-03-22T06:04:01;36.73;;;30.17;;
20044;SDS011;10183;47.808;9.476;2024-03-22T06:06:26;36.53;;;29.50;;
20044;SDS011;10183;47.808;9.476;2024-03-22T06:08:52;37.27;;;28.57;;
20044;SDS011;10183;47.808;9.476;2024-03-22T06:11:19;39.63;;;30.47;;
20044;SDS011;10183;47.808;9.476;2024-03-22T06:13:46;35.53;;;27.97;;
20044;SDS011;10183;47.808;9.476;2024-03-22T06:16:12;34.90;;;27.50;;
20044;SDS011;10183;47.808;9.476;2024-03-22T06:18:39;29.40;;;26.20;;
20044;SDS011;10183;47.808;9.476;2024-03-22T06:21:05;34.57;;;27.73;;
20044;SDS011;10183;47.808;9.476;2024-03-22T06:23:31;34.40;;;28.23;;
20044;SDS011;10183;47.808;9.476;2024-03-22T06:25:57;30.27;;;26.27;;
20044;SDS011;10183;47.808;9.476;2024-03-22T06:28:25;32.17;;;25.37;;
20044;SDS011;10183;47.808;9.476;2024-03-22T06:30:51;35.27;;;28.07;;
20044;SDS011;10183;47.808;9.476;2024-03-22T06:33:17;35.23;;;28.97;;
20044;SDS011;10183;47.808;9.476;2024-03-22T06:35:43;37.57;;;29.73;;
20044;SDS011;10183;47.808;9.476;2024-03-22T06:38:08;37.23;;;31.27;;
20044;SDS011;10183;47.808;9.476;2024-03-22T06:40:34;52.77;;;43.70;;
20044;SDS011;10183;47.808;9.476;2024-03-22T06:43:00;38.07;;;29.03;;
20044;SDS011;10183;47.808;9.476;2024-03-22T06:45:26;42.03;;;30.33;;
20044;SDS011;10183;47.808;9.476;2024-03-22T06:47:51;44.00;;;34.43;;
20044;SDS011;10183;47.808;9.476;2024-03-22T06:50:17;43.23;;;31.97;;
20044;SDS011;10183;47.808;9.476;2024-03-22T06:52:44;39.70;;;33.63;;
20044;SDS011;10183;47.808;9.476;2024-03-22T06:55:09;46.80;;;41.07;;
20044;SDS011;10183;47.808;9.476;2024-03-22T06:57:36;57.13;;;49.67;;
20044;SDS011;10183;47.808;9.476;2024-03-22T07:00:03;46.50;;;41.20;;
20044;SDS011;10183;47.808;9.476;2024-03-22T07:02:29;53.20;;;47.60;;
20044;SDS011;10183;47.808;9.476;2024-03-22T07:04:54;53.33;;;45.17;;
20044;SDS011;10183;47.808;9.476;2024-03-22T07:07:20;46.67;;;41.63;;
20044;SDS011;10183;47.808;9.476;2024-03-22T07:09:46;50.63;;;43.67;;
20044;SDS011;10183;47.808;9.476;2024-03-22T07:12:12;56.53;;;47.73;;
20044;SDS011;10183;47.808;9.476;2024-03-22T07:14:38;43.10;;;32.57;;
20044;SDS011;10183;47.808;9.476;2024-03-22T07:17:04;36.43;;;28.00;;
20044;SDS011;10183;47.808;9.476;2024-03-22T07:19:30;38.37;;;27.23;;
20044;SDS011;10183;47.808;9.476;2024-03-22T07:21:56;45.10;;;36.00;;
20044;SDS011;10183;47.808;9.476;2024-03-22T07:24:24;38.87;;;29.90;;
20044;SDS011;10183;47.808;9.476;2024-03-22T07:26:50;39.17;;;31.53;;
20044;SDS011;10183;47.808;9.476;2024-03-22T07:29:16;34.00;;;26.43;;
20044;SDS011;10183;47.808;9.476;2024-03-22T07:31:42;37.27;;;26.90;;
20044;SDS011;10183;47.808;9.476;2024-03-22T07:34:08;34.63;;;28.20;;
20044;SDS011;10183;47.808;9.476;2024-03-22T07:36:37;34.20;;;26.27;;
20044;SDS011;10183;47.808;9.476;2024-03-22T07:39:03;42.40;;;30.57;;
20044;SDS011;10183;47.808;9.476;2024-03-22T07:41:31;40.10;;;31.37;;
20044;SDS011;10183;47.808;9.476;2024-03-22T07:43:57;42.73;;;33.30;;
20044;SDS011;10183;47.808;9.476;2024-03-22T07:46:25;41.03;;;31.50;;
20044;SDS011;10183;47.808;9.476;2024-03-22T07:48:51;42.47;;;33.57;;
20044;SDS011;10183;47.808;9.476;2024-03-22T07:51:16;42.60;;;33.63;;
20044;SDS011;10183;47.808;9.476;2024-03-22T07:53:42;43.90;;;36.07;;
20044;SDS011;10183;47.808;9.476;2024-03-22T07:56:07;57.20;;;50.60;;
20044;SDS011;10183;47.808;9.476;2024-03-22T07:58:33;45.60;;;39.37;;
20044;SDS011;10183;47.808;9.476;2024-03-22T08:00:59;42.67;;;36.50;;
20044;SDS011;10183;47.808;9.476;2024-03-22T08:03:24;41.97;;;37.37;;
20044;SDS011;10183;47.808;9.476;2024-03-22T08:05:50;62.83;;;50.87;;
20044;SDS011;10183;47.808;9.476;2024-03-22T08:08:16;54.03;;;48.23;;
20044;SDS011;10183;47.808;9.476;2024-03-22T08:10:42;55.40;;;49.30;;
20044;SDS011;10183;47.808;9.476;2024-03-22T08:13:08;39.87;;;34.00;;
20044;SDS011;10183;47.808;9.476;2024-03-22T08:15:33;31.47;;;26.17;;
20044;SDS011;10183;47.808;9.476;2024-03-22T08:18:00;44.50;;;39.13;;
20044;SDS011;10183;47.808;9.476;2024-03-22T08:20:26;57.60;;;45.77;;
20044;SDS011;10183;47.808;9.476;2024-03-22T08:22:53;69.53;;;54.17;;
20044;SDS011;10183;47.808;9.476;2024-03-22T08:25:19;69.70;;;52.27;;
20044;SDS011;10183;47.808;9.476;2024-03-22T08:27:45;73.33;;;56.47;;
20044;SDS011;10183;47.808;9.476;2024-03-22T08:30:12;79.47;;;60.03;;
20044;SDS011;10183;47.808;9.476;2024-03-22T08:32:38;43.67;;;36.67;;
20044;SDS011;10183;47.808;9.476;2024-03-22T08:35:04;52.70;;;46.00;;
20044;SDS011;10183;47.808;9.476;2024-03-22T08:37:32;48.47;;;39.30;;
20044;SDS011;10183;47.808;9.476;2024-03-22T08:39:59;48.63;;;36.73;;
20044;SDS011;10183;47.808;9.476;2024-03-22T08:42:25;44.93;;;39.53;;
20044;SDS011;10183;47.808;9.476;2024-03-22T08:44:50;50.13;;;43.50;;
20044;SDS011;10183;47.808;9.476;2024-03-22T08:47:16;52.17;;;42.37;;
20044;SDS011;10183;47.808;9.476;2024-03-22T08:49:41;45.17;;;40.10;;
20044;SDS011;10183;47.808;9.476;2024-03-22T08:52:09;50.10;;;44.80;;
20044;SDS011;10183;47.808;9.476;2024-03-22T08:54:35;59.47;;;51.37;;
20044;SDS011;10183;47.808;9.476;2024-03-22T08:57:00;46.03;;;40.10;;
20044;SDS011;10183;47.808;9.476;2024-03-22T08:59:26;48.13;;;42.43;;
20044;SDS011;10183;47.808;9.476;2024-03-22T09:01:52;43.27;;;37.30;;
20044;SDS011;10183;47.808;9.476;2024-03-22T09:04:18;50.60;;;44.97;;
20044;SDS011;10183;47.808;9.476;2024-03-22T09:06:44;43.90;;;38.03;;
20044;SDS011;10183;47.808;9.476;2024-03-22T09:09:10;44.93;;;38.80;;
20044;SDS011;10183;47.808;9.476;2024-03-22T09:11:36;43.93;;;37.60;;
20044;SDS011;10183;47.808;9.476;2024-03-22T09:14:02;50.27;;;44.27;;
20044;SDS011;10183;47.808;9.476;2024-03-22T09:16:27;47.53;;;38.77;;
20044;SDS011;10183;47.808;9.476;2024-03-22T09:18:54;42.17;;;37.60;;
20044;SDS011;10183;47.808;9.476;2024-03-22T09:21:20;39.30;;;28.37;;
20044;SDS011;10183;47.808;9.476;2024-03-22T09:23:45;44.37;;;38.30;;
20044;SDS011;10183;47.808;9.476;2024-03-22T09:26:11;42.70;;;36.63;;
20044;SDS011;10183;47.808;9.476;2024-03-22T09:28:37;47.87;;;42.73;;
20044;SDS011;10183;47.808;9.476;2024-03-22T09:31:03;51.07;;;45.83;;
20044;SDS011;10183;47.808;9.476;2024-03-22T09:33:30;66.57;;;54.97;;
20044;SDS011;10183;47.808;9.476;2024-03-22T09:35:57;69.30;;;61.40;;
20044;SDS011;10183;47.808;9.476;2024-03-22T09:38:23;66.77;;;59.53;;
20044;SDS011;10183;47.808;9.476;2024-03-22T09:40:49;67.57;;;60.07;;
20044;SDS011;10183;47.808;9.476;2024-03-22T09:43:19;67.60;;;59.37;;
20044;SDS011;10183;47.808;9.476;2024-03-22T09:45:49;54.07;;;47.07;;
20044;SDS011;10183;47.808;9.476;2024-03-22T09:48:15;60.77;;;52.70;;
20044;SDS011;10183;47.808;9.476;2024-03-22T09:50:47;54.97;;;49.17;;
20044;SDS011;10183;47.808;9.476;2024-03-22T09:53:13;61.17;;;53.90;;
20044;SDS011;10183;47.808;9.476;2024-03-22T09:55:43;65.40;;;55.17;;
20044;SDS011;10183;47.808;9.476;2024-03-22T09:58:10;56.07;;;47.87;;
20044;SDS011;10183;47.808;9.476;2024-03-22T10:00:36;47.23;;;42.23;;
20044;SDS011;10183;47.808;9.476;2024-03-22T10:03:01;47.97;;;41.90;;
20044;SDS011;10183;47.808;9.476;2024-03-22T10:05:29;52.97;;;46.23;;
20044;SDS011;10183;47.808;9.476;2024-03-22T10:07:56;57.93;;;51.40;;
20044;SDS011;10183;47.808;9.476;2024-03-22T10:10:21;74.50;;;60.13;;
20044;SDS011;10183;47.808;9.476;2024-03-22T10:12:48;52.73;;;47.13;;
20044;SDS011;10183;47.808;9.476;2024-03-22T10:15:14;52.37;;;46.87;;
20044;SDS011;10183;47.808;9.476;2024-03-22T10:17:39;61.37;;;55.20;;
20044;SDS011;10183;47.808;9.476;2024-03-22T10:20:05;58.03;;;51.83;;
20044;SDS011;10183;47.808;9.476;2024-03-22T10:22:41;48.57;;;42.77;;
20044;SDS011;10183;47.808;9.476;2024-03-22T10:25:14;64.23;;;50.20;;
20044;SDS011;10183;47.808;9.476;2024-03-22T10:27:40;47.00;;;41.03;;
20044;SDS011;10183;47.808;9.476;2024-03-22T10:30:09;40.43;;;30.20;;
20044;SDS011;10183;47.808;9.476;2024-03-22T10:32:36;49.40;;;42.87;;
20044;SDS011;10183;47.808;9.476;2024-03-22T10:35:02;55.33;;;48.77;;
20044;SDS011;10183;47.808;9.476;2024-03-22T10:37:31;48.03;;;40.80;;
20044;SDS011;10183;47.808;9.476;2024-03-22T10:39:58;53.73;;;45.73;;
20044;SDS011;10183;47.808;9.476;2024-03-22T10:42:32;47.33;;;41.47;;
20044;SDS011;10183;47.808;9.476;2024-03-22T10:44:59;49.05;;;43.70;;
20044;SDS011;10183;47.808;9.476;2024-03-22T10:47:24;53.78;;;47.90;;
20044;SDS011;10183;47.808;9.476;2024-03-22T10:49:54;53.53;;;47.95;;
20044;SDS011;10183;47.808;9.476;2024-03-22T10:52:29;41.35;;;36.90;;
20044;SDS011;10183;47.808;9.476;2024-03-22T10:54:57;54.22;;;48.53;;
20044;SDS011;10183;47.808;9.476;2024-03-22T10:57:23;36.27;;;32.47;;
20044;SDS011;10183;47.808;9.476;2024-03-22T10:59:49;47.37;;;42.47;;
20044;SDS011;10183;47.808;9.476;2024-03-22T11:02:19;42.17;;;35.53;;
20044;SDS011;10183;47.808;9.476;2024-03-22T11:04:58;50.67;;;45.30;;
20044;SDS011;10183;47.808;9.476;2024-03-22T11:07:28;59.97;;;48.93;;
20044;SDS011;10183;47.808;9.476;2024-03-22T11:09:58;58.60;;;52.40;;
20044;SDS011;10183;47.808;9.476;2024-03-22T11:12:28;59.83;;;53.63;;
20044;SDS011;10183;47.808;9.476;2024-03-22T11:14:58;78.67;;;68.50;;
20044;SDS011;10183;47.808;9.476;2024-03-22T11:17:23;78.07;;;69.00;;
20044;SDS011;10183;47.808;9.476;2024-03-22T11:19:50;76.57;;;68.00;;
20044;SDS011;10183;47.808;9.476;2024-03-22T11:22:17;64.25;;;57.38;;
20044;SDS011;10183;47.808;9.476;2024-03-22T11:24:43;66.30;;;59.03;;
20044;SDS011;10183;47.808;9.476;2024-03-22T11:27:09;63.15;;;56.28;;
20044;SDS011;10183;47.808;9.476;2024-03-22T11:29:36;66.35;;;59.25;;
20044;SDS011;10183;47.808;9.476;2024-03-22T11:32:09;67.63;;;60.63;;
20044;SDS011;10183;47.808;9.476;2024-03-22T11:34:36;78.97;;;70.37;;
20044;SDS011;10183;47.808;9.476;2024-03-22T11:37:03;61.42;;;52.00;;
20044;SDS011;10183;47.808;9.476;2024-03-22T11:39:35;64.72;;;57.88;;
20044;SDS011;10183;47.808;9.476;2024-03-22T11:42:03;70.50;;;62.78;;
20044;SDS011;10183;47.808;9.476;2024-03-22T11:44:30;64.60;;;57.60;;
20044;SDS011;10183;47.808;9.476;2024-03-22T11:46:57;66.47;;;59.33;;
20044;SDS011;10183;47.808;9.476;2024-03-22T11:49:23;72.40;;;64.53;;
20044;SDS011;10183;47.808;9.476;2024-03-22T11:51:51;65.00;;;57.45;;
20044;SDS011;10183;47.808;9.476;2024-03-22T11:54:20;71.68;;;62.90;;
20044;SDS011;10183;47.808;9.476;2024-03-22T11:56:46;61.10;;;54.40;;
20044;SDS011;10183;47.808;9.476;2024-03-22T11:59:12;77.32;;;62.05;;
20044;SDS011;10183;47.808;9.476;2024-03-22T12:01:38;69.18;;;61.58;;
20044;SDS011;10183;47.808;9.476;2024-03-22T12:04:06;68.32;;;60.72;;
20044;SDS011;10183;47.808;9.476;2024-03-22T12:06:33;72.90;;;62.75;;
20044;SDS011;10183;47.808;9.476;2024-03-22T12:09:00;62.85;;;56.08;;
20044;SDS011;10183;47.808;9.476;2024-03-22T12:11:25;71.10;;;63.45;;
20044;SDS011;10183;47.808;9.476;2024-03-22T12:13:51;55.17;;;49.25;;
20044;SDS011;10183;47.808;9.476;2024-03-22T12:16:17;34.42;;;29.08;;
20044;SDS011;10183;47.808;9.476;2024-03-22T12:18:43;41.45;;;36.33;;
20044;SDS011;10183;47.808;9.476;2024-03-22T12:21:09;45.20;;;40.42;;
20044;SDS011;10183;47.808;9.476;2024-03-22T12:23:34;33.00;;;27.65;;
20044;SDS011;10183;47.808;9.476;2024-03-22T12:26:00;46.22;;;41.47;;
20044;SDS011;10183;47.808;9.476;2024-03-22T12:28:25;49.05;;;43.83;;
20044;SDS011;10183;47.808;9.476;2024-03-22T12:30:51;41.40;;;36.92;;
20044;SDS011;10183;47.808;9.476;2024-03-22T12:33:17;48.33;;;43.38;;
20044;SDS011;10183;47.808;9.476;2024-03-22T12:35:42;45.08;;;40.58;;
20044;SDS011;10183;47.808;9.476;2024-03-22T12:38:08;40.83;;;36.42;;
20044;SDS011;10183;47.808;9.476;2024-03-22T12:40:40;46.75;;;41.80;;
20044;SDS011;10183;47.808;9.476;2024-03-22T12:43:07;40.47;;;35.63;;
20044;SDS011;10183;47.808;9.476;2024-03-22T12:45:36;43.38;;;38.78;;
20044;SDS011;10183;47.808;9.476;2024-03-22T12:48:02;44.17;;;38.40;;
20044;SDS011;10183;47.808;9.476;2024-03-22T12:50:29;43.42;;;38.97;;
20044;SDS011;10183;47.808;9.476;2024-03-22T12:52:55;42.33;;;37.83;;
20044;SDS011;10183;47.808;9.476;2024-03-22T12:55:22;36.85;;;32.03;;
20044;SDS011;10183;47.808;9.476;2024-03-22T12:57:48;46.28;;;41.47;;
20044;SDS011;10183;47.808;9.476;2024-03-22T13:00:14;48.28;;;43.08;;
20044;SDS011;10183;47.808;9.476;2024-03-22T13:02:43;40.30;;;35.75;;
20044;SDS011;10183;47.808;9.476;2024-03-22T13:05:10;43.40;;;38.88;;
20044;SDS011;10183;47.808;9.476;2024-03-22T13:07:37;41.33;;;36.92;;
20044;SDS011;10183;47.808;9.476;2024-03-22T13:10:03;44.83;;;40.15;;
20044;SDS011;10183;47.808;9.476;2024-03-22T13:12:29;44.65;;;40.03;;
20044;SDS011;10183;47.808;9.476;2024-03-22T13:14:56;41.08;;;36.70;;
20044;SDS011;10183;47.808;9.476;2024-03-22T13:17:22;41.88;;;35.28;;
20044;SDS011;10183;47.808;9.476;2024-03-22T13:19:49;40.75;;;36.33;;
20044;SDS011;10183;47.808;9.476;2024-03-22T13:22:15;41.28;;;36.78;;
20044;SDS011;10183;47.808;9.476;2024-03-22T13:24:44;43.20;;;38.72;;
20044;SDS011;10183;47.808;9.476;2024-03-22T13:27:10;41.25;;;34.42;;
20044;SDS011;10183;47.808;9.476;2024-03-22T13:29:37;35.95;;;31.98;;
20044;SDS011;10183;47.808;9.476;2024-03-22T13:32:03;61.35;;;54.85;;
20044;SDS011;10183;47.808;9.476;2024-03-22T13:34:30;57.20;;;51.05;;
20044;SDS011;10183;47.808;9.476;2024-03-22T13:36:56;53.15;;;47.65;;
20044;SDS011;10183;47.808;9.476;2024-03-22T13:39:22;61.78;;;55.58;;
20044;SDS011;10183;47.808;9.476;2024-03-22T13:41:48;58.17;;;52.10;;
20044;SDS011;10183;47.808;9.476;2024-03-22T13:44:14;56.85;;;50.92;;
20044;SDS011;10183;47.808;9.476;2024-03-22T13:46:40;51.40;;;45.90;;
20044;SDS011;10183;47.808;9.476;2024-03-22T13:49:13;59.08;;;52.90;;
20044;SDS011;10183;47.808;9.476;2024-03-22T13:51:43;54.80;;;49.30;;
20044;SDS011;10183;47.808;9.476;2024-03-22T13:54:09;60.50;;;54.50;;
20044;SDS011;10183;47.808;9.476;2024-03-22T13:56:37;43.60;;;39.10;;
20044;SDS011;10183;47.808;9.476;2024-03-22T13:59:06;49.92;;;44.92;;
20044;SDS011;10183;47.808;9.476;2024-03-22T14:01:33;42.97;;;37.88;;
20044;SDS011;10183;47.808;9.476;2024-03-22T14:04:00;42.33;;;37.80;;
20044;SDS011;10183;47.808;9.476;2024-03-22T14:06:26;45.83;;;41.03;;
20044;SDS011;10183;47.808;9.476;2024-03-22T14:08:51;46.22;;;41.40;;
20044;SDS011;10183;47.808;9.476;2024-03-22T14:11:19;41.45;;;37.00;;
20044;SDS011;10183;47.808;9.476;2024-03-22T14:13:45;44.90;;;40.38;;
20044;SDS011;10183;47.808;9.476;2024-03-22T14:16:11;45.85;;;41.05;;